Time;durP1;ratioP1;P1;durP2;ratioP2;P2;SDS_P1;SDS_P2;PMS_P1;PMS_P2;Temp;Humidity;BMP_temperature;BMP_pressure;BME280_temperature;BME280_humidity;BME280_pressure;Samples;Min_cycle;Max_cycle;Signal;HPM_P1;HPM_P2
2023/05/29 00:01:18;;;;;;;6.83;3.80;;;;;;;20.56;79.80;98623.25;5097593;28;20218;-89
2023/05/29 00:03:45;;;;;;;7.57;3.23;;;;;;;20.56;79.79;98621.44;5095007;28;20177;-90
2023/05/29 00:06:12;;;;;;;7.70;3.67;;;;;;;20.57;79.64;98624.94;5095023;28;20536;-89
2023/05/29 00:08:37;;;;;;;7.30;3.83;;;;;;;20.54;80.01;98623.41;5109168;28;20171;-89
2023/05/29 00:11:03;;;;;;;5.30;3.13;;;;;;;20.50;80.21;98629.19;5116219;28;20258;-90
2023/05/29 00:13:30;;;;;;;8.00;3.77;;;;;;;20.40;80.09;98623.13;5116780;28;20175;-88
2023/05/29 00:15:57;;;;;;;7.07;3.47;;;;;;;20.40;80.57;98623.13;5114412;28;20622;-90
2023/05/29 00:18:24;;;;;;;6.07;3.20;;;;;;;20.45;80.43;98621.69;5115297;28;20597;-90
2023/05/29 00:20:50;;;;;;;12.63;4.10;;;;;;;20.46;80.21;98622.53;5095944;28;20204;-89
2023/05/29 00:23:16;;;;;;;9.43;3.40;;;;;;;20.41;80.31;98614.16;5095921;28;20185;-89
2023/05/29 00:25:42;;;;;;;6.80;3.03;;;;;;;20.49;80.02;98623.03;5095515;28;20245;-89
2023/05/29 00:28:09;;;;;;;5.00;2.50;;;;;;;20.51;80.03;98628.22;5095760;28;20172;-90
2023/05/29 00:30:35;;;;;;;6.57;2.80;;;;;;;20.49;79.81;98617.69;5095728;28;20195;-89
2023/05/29 00:33:02;;;;;;;6.57;3.63;;;;;;;20.48;79.81;98620.53;5095692;28;20627;-90
2023/05/29 00:35:29;;;;;;;6.00;2.80;;;;;;;20.38;79.89;98622.44;5095360;28;20191;-89
2023/05/29 00:37:55;;;;;;;9.40;3.33;;;;;;;20.42;80.33;98626.47;5094367;28;20623;-90
2023/05/29 00:40:20;;;;;;;7.13;3.27;;;;;;;20.48;79.96;98636.50;5095609;28;20180;-89
2023/05/29 00:42:47;;;;;;;6.53;3.10;;;;;;;20.56;79.79;98633.91;5095532;28;20180;-90
2023/05/29 00:45:13;;;;;;;7.87;3.13;;;;;;;20.60;79.54;98632.59;5095451;28;20165;-89
2023/05/29 00:47:41;;;;;;;8.70;3.20;;;;;;;20.48;79.83;98629.34;5097395;28;20181;-90
2023/05/29 00:50:10;;;;;;;7.13;3.50;;;;;;;20.41;80.55;98627.47;5115893;28;20276;-90
2023/05/29 00:52:38;;;;;;;10.13;3.53;;;;;;;20.44;80.68;98622.66;5114573;28;20172;-89
2023/05/29 00:55:05;;;;;;;8.90;3.90;;;;;;;20.53;80.54;98628.88;5115724;28;20607;-90
2023/05/29 00:57:31;;;;;;;9.63;3.40;;;;;;;20.51;80.34;98626.38;5114273;28;20180;-90
2023/05/29 00:59:58;;;;;;;5.83;3.10;;;;;;;20.53;80.27;98619.06;5114265;28;20559;-89
2023/05/29 01:02:29;;;;;;;5.80;3.27;;;;;;;20.54;79.94;98619.91;5115199;28;20183;-89
2023/05/29 01:04:55;;;;;;;4.80;2.77;;;;;;;20.54;79.73;98620.75;5113259;28;20661;-89
2023/05/29 01:07:21;;;;;;;5.77;2.50;;;;;;;20.53;79.61;98623.56;5094755;28;20164;-89
2023/05/29 01:09:46;;;;;;;9.23;3.30;;;;;;;20.50;79.76;98627.38;5093791;28;20275;-90
2023/05/29 01:12:49;;;;;;;8.40;3.20;;;;;;;20.50;79.86;98630.03;5094651;28;20175;-88
2023/05/29 01:15:35;;;;;;;6.50;3.20;;;;;;;20.43;80.14;98620.16;5101460;28;20175;-89
2023/05/29 01:18:31;;;;;;;6.47;2.27;;;;;;;20.45;79.75;98623.50;5114993;28;20676;-89
2023/05/29 01:21:21;;;;;;;5.20;2.60;;;;;;;20.33;80.15;98616.75;5113865;28;20175;-89
2023/05/29 01:24:12;;;;;;;5.50;2.60;;;;;;;20.33;80.22;98619.41;5114642;28;20638;-89
2023/05/29 01:26:44;;;;;;;6.47;2.17;;;;;;;20.18;80.74;98609.28;5115212;28;20629;-89
2023/05/29 01:29:12;;;;;;;8.10;2.87;;;;;;;20.22;80.91;98615.13;5114545;28;20259;-89
2023/05/29 01:31:39;;;;;;;5.37;2.17;;;;;;;20.15;81.13;98622.06;5113549;28;20168;-88
2023/05/29 01:34:06;;;;;;;6.00;2.93;;;;;;;20.09;80.62;98615.53;5114691;28;20168;-89
2023/05/29 01:36:33;;;;;;;8.40;2.30;;;;;;;20.05;81.48;98615.97;5114661;28;20188;-89
2023/05/29 01:39:00;;;;;;;11.70;2.37;;;;;;;19.99;82.07;98617.44;5114407;28;20232;-90
2023/05/29 01:41:27;;;;;;;9.13;3.30;;;;;;;20.08;81.70;98611.19;5114781;28;20168;-89
2023/05/29 01:43:57;;;;;;;5.30;2.50;;;;;;;19.98;81.13;98612.25;5114446;28;20171;-89
2023/05/29 01:46:25;;;;;;;6.80;2.37;;;;;;;19.97;81.96;98610.56;5114343;28;20214;-89
2023/05/29 01:48:51;;;;;;;4.63;2.20;;;;;;;20.00;81.44;98610.28;5114623;27;20167;-90
2023/05/29 01:51:17;;;;;;;4.27;2.53;;;;;;;20.03;81.56;98605.50;5097611;28;20203;-90
2023/05/29 01:53:44;;;;;;;3.70;2.07;;;;;;;20.09;81.64;98612.03;5092901;28;20172;-89
2023/05/29 01:56:11;;;;;;;5.60;2.47;;;;;;;20.15;80.99;98598.94;5094122;28;20220;-90
2023/05/29 01:58:38;;;;;;;4.90;2.47;;;;;;;20.12;80.95;98609.91;5093904;28;20179;-90
2023/05/29 02:01:06;;;;;;;3.97;2.50;;;;;;;20.15;80.58;98611.44;5110316;28;20191;-89
2023/05/29 02:03:33;;;;;;;5.83;2.60;;;;;;;20.27;80.28;98617.38;5113062;28;20175;-92
2023/05/29 02:06:00;;;;;;;7.00;2.90;;;;;;;20.29;79.73;98613.56;5113145;28;20542;-90
2023/05/29 02:08:26;;;;;;;5.63;2.80;;;;;;;20.34;79.30;98613.09;5114079;28;20172;-90
2023/05/29 02:10:51;;;;;;;7.13;2.60;;;;;;;20.39;79.29;98613.50;5113144;28;20178;-89
2023/05/29 02:13:17;;;;;;;5.70;2.73;;;;;;;20.34;79.21;98613.94;5113364;28;20168;-89
2023/05/29 02:15:44;;;;;;;8.77;2.83;;;;;;;20.37;78.61;98612.78;5112887;28;20205;-91
2023/05/29 02:18:17;;;;;;;7.90;2.93;;;;;;;20.36;79.10;98614.59;5114524;28;20171;-91
2023/05/29 02:20:42;;;;;;;5.93;3.40;;;;;;;20.42;78.89;98615.81;5114324;28;20537;-90
2023/05/29 02:23:09;;;;;;;5.40;3.07;;;;;;;20.48;78.39;98618.72;5113533;28;20190;-90
2023/05/29 02:25:35;;;;;;;6.17;3.53;;;;;;;20.49;78.43;98617.69;5113765;28;20220;-91
2023/05/29 02:28:02;;;;;;;5.83;3.00;;;;;;;20.41;78.62;98614.16;5110578;28;20176;-90
2023/05/29 02:30:28;;;;;;;4.83;2.60;;;;;;;20.34;78.93;98618.41;5094051;28;20233;-91
2023/05/29 02:32:55;;;;;;;5.57;2.77;;;;;;;20.30;79.45;98617.91;5092461;28;20172;-90
2023/05/29 02:35:22;;;;;;;4.63;2.50;;;;;;;20.31;79.48;98616.09;5108276;28;20179;-90
2023/05/29 02:37:52;;;;;;;6.00;2.70;;;;;;;20.35;79.35;98620.09;5113645;28;20258;-90
2023/05/29 02:40:19;;;;;;;8.80;2.90;;;;;;;20.42;79.21;98626.47;5113384;28;20175;-88
2023/05/29 02:42:45;;;;;;;4.20;2.03;;;;;;;20.50;78.34;98621.19;5102733;28;20173;-90
2023/05/29 02:45:11;;;;;;;5.20;2.60;;;;;;;20.54;78.26;98631.41;5092683;28;20180;-89
2023/05/29 02:47:38;;;;;;;5.40;2.57;;;;;;;20.55;78.05;98632.22;5109498;28;20187;-89
2023/05/29 02:50:05;;;;;;;7.47;2.70;;;;;;;20.54;78.37;98631.41;5112652;28;20615;-89
2023/05/29 02:52:32;;;;;;;8.77;2.77;;;;;;;20.54;78.14;98633.22;5113609;28;20195;-89
2023/05/29 02:55:01;;;;;;;6.53;2.83;;;;;;;20.52;78.20;98637.88;5112402;28;20317;-89
2023/05/29 02:57:27;;;;;;;7.57;2.43;;;;;;;20.44;78.49;98635.97;5112416;28;20213;-89
2023/05/29 02:59:52;;;;;;;5.33;2.77;;;;;;;20.46;78.58;98646.47;5113557;28;20172;-89
2023/05/29 03:02:19;;;;;;;4.60;2.83;;;;;;;20.56;78.08;98641.88;5113493;28;20167;-89
2023/05/29 03:04:46;;;;;;;6.43;2.53;;;;;;;20.57;78.42;98651.56;5113983;28;20205;-89
2023/05/29 03:07:12;;;;;;;6.00;2.37;;;;;;;20.55;78.06;98643.72;5106311;28;20277;-89
2023/05/29 03:09:38;;;;;;;8.77;3.00;;;;;;;20.52;78.10;98648.53;5093327;28;20169;-88
2023/05/29 03:12:04;;;;;;;5.10;2.50;;;;;;;20.47;78.15;98645.47;5093023;28;20534;-89
2023/05/29 03:14:30;;;;;;;8.17;3.30;;;;;;;20.39;78.94;98661.41;5092066;28;20192;-90
2023/05/29 03:16:59;;;;;;;8.93;2.87;;;;;;;20.34;78.72;98659.19;5092757;28;20192;-90
2023/05/29 03:19:24;;;;;;;7.27;3.10;;;;;;;20.34;79.10;98668.97;5110751;28;20233;-90
2023/05/29 03:21:50;;;;;;;11.53;3.30;;;;;;;20.37;79.02;98666.03;5113178;28;20164;-88
2023/05/29 03:24:15;;;;;;;3.90;2.17;;;;;;;20.37;78.92;98666.03;5112948;28;20211;-89
2023/05/29 03:26:41;;;;;;;5.33;2.73;;;;;;;20.34;78.80;98664.50;5113245;28;20241;-89
2023/05/29 03:29:08;;;;;;;6.63;2.97;;;;;;;20.33;78.95;98668.19;5113777;28;20632;-89
2023/05/29 03:31:35;;;;;;;5.93;2.57;;;;;;;20.25;79.45;98668.09;5113494;28;20203;-89
2023/05/29 03:34:00;;;;;;;8.00;2.90;;;;;;;20.24;79.75;98669.06;5112032;28;20171;-90
2023/05/29 03:36:26;;;;;;;10.37;2.77;;;;;;;20.18;79.70;98664.31;5112148;28;20681;-89
2023/05/29 03:38:52;;;;;;;4.93;2.90;;;;;;;20.11;80.28;98672.09;5112103;28;20247;-89
2023/05/29 03:41:18;;;;;;;5.20;2.70;;;;;;;20.06;80.76;98670.88;5112144;28;20634;-90
2023/05/29 03:43:44;;;;;;;9.27;2.80;;;;;;;20.03;81.05;98674.66;5101210;28;20195;-88
2023/05/29 03:46:09;;;;;;;4.37;2.47;;;;;;;20.07;81.01;98677.88;5092922;28;20164;-90
2023/05/29 03:48:36;;;;;;;5.73;2.60;;;;;;;20.11;80.90;98682.75;5092653;28;20218;-89
2023/05/29 03:51:01;;;;;;;5.37;2.40;;;;;;;20.20;80.64;98686.31;5093791;28;20522;-89
2023/05/29 03:53:28;;;;;;;5.90;3.00;;;;;;;20.21;80.46;98680.84;5095555;28;20187;-90
2023/05/29 03:55:55;;;;;;;7.87;2.83;;;;;;;20.18;80.31;98682.94;5096703;28;20265;-89
2023/05/29 03:58:22;;;;;;;5.60;3.00;;;;;;;20.18;80.60;98680.28;5096788;28;20251;-88
2023/05/29 04:00:47;;;;;;;7.50;3.10;;;;;;;20.20;80.43;98676.47;5101614;28;20184;-88
2023/05/29 04:03:14;;;;;;;6.03;3.00;;;;;;;20.23;80.31;98678.88;5117223;28;20178;-88
2023/05/29 04:05:41;;;;;;;6.50;3.13;;;;;;;20.29;79.98;98673.94;5116264;28;20172;-88
2023/05/29 04:08:08;;;;;;;8.60;2.93;;;;;;;20.29;80.35;98673.94;5116584;28;20260;-90
2023/05/29 04:10:34;;;;;;;5.30;2.97;;;;;;;20.35;79.77;98674.19;5116875;28;20172;-88
2023/05/29 04:13:01;;;;;;;7.00;2.83;;;;;;;20.48;79.99;98666.63;5100080;28;20618;-89
2023/05/29 04:15:28;;;;;;;5.67;2.40;;;;;;;20.53;79.03;98677.66;5095803;28;20216;-90
2023/05/29 04:17:54;;;;;;;5.67;2.57;;;;;;;20.53;79.10;98671.47;5095802;28;20168;-88
2023/05/29 04:20:21;;;;;;;4.87;2.70;;;;;;;20.54;78.96;98673.16;5095718;28;20171;-89
2023/05/29 04:22:48;;;;;;;4.50;2.50;;;;;;;20.54;79.01;98670.50;5096150;28;20184;-88
2023/05/29 04:25:15;;;;;;;5.67;2.77;;;;;;;20.53;77.89;98674.16;5098959;28;20636;-90
2023/05/29 04:27:41;;;;;;;5.93;2.60;;;;;;;20.55;77.99;98674.81;5116476;28;20174;-89
2023/05/29 04:30:08;;;;;;;4.70;2.40;;;;;;;20.36;78.55;98675.00;5115894;28;20199;-88
2023/05/29 04:32:34;;;;;;;8.43;2.83;;;;;;;20.39;78.82;98677.38;5114940;28;20186;-87
2023/05/29 04:35:03;;;;;;;9.50;3.37;;;;;;;20.39;78.88;98680.03;5114837;28;20171;-89
2023/05/29 04:37:29;;;;;;;5.20;2.83;;;;;;;20.28;79.17;98683.78;5115659;28;20203;-88
2023/05/29 04:39:57;;;;;;;6.13;2.13;;;;;;;20.21;79.04;98682.66;5114638;28;20171;-88
2023/05/29 04:42:24;;;;;;;7.60;2.60;;;;;;;20.33;79.54;98673.50;5114662;28;20279;-89
2023/05/29 04:44:52;;;;;;;5.03;3.00;;;;;;;20.25;79.55;98683.22;5114589;28;20650;-88
2023/05/29 04:47:19;;;;;;;4.17;2.13;;;;;;;20.20;79.43;98675.66;5115366;28;20221;-88
2023/05/29 04:49:49;;;;;;;5.47;2.87;;;;;;;20.21;79.95;98682.66;5115823;28;20689;-89
2023/05/29 04:52:16;;;;;;;5.57;2.77;;;;;;;20.17;80.00;98682.13;5115503;28;20255;-88
2023/05/29 04:54:41;;;;;;;5.93;2.33;;;;;;;20.21;80.33;98693.28;5115431;28;20255;-88
2023/05/29 04:57:08;;;;;;;8.40;2.83;;;;;;;20.24;80.57;98693.03;5115131;27;20279;-88
2023/05/29 04:59:34;;;;;;;7.73;3.23;;;;;;;20.30;80.30;98707.56;5115323;28;20179;-88
2023/05/29 05:02:01;;;;;;;7.77;3.57;;;;;;;20.37;79.71;98711.28;5114813;28;20625;-89
2023/05/29 05:04:27;;;;;;;7.40;3.17;;;;;;;20.47;80.18;98718.19;5115285;28;20186;-89
2023/05/29 05:06:53;;;;;;;5.03;2.40;;;;;;;20.40;79.67;98718.97;5115162;28;20164;-88
2023/05/29 05:09:19;;;;;;;6.40;3.33;;;;;;;20.55;79.53;98722.75;5115284;28;20182;-88
2023/05/29 05:11:46;;;;;;;5.17;2.63;;;;;;;20.66;79.17;98723.38;5115336;28;20544;-88
2023/05/29 05:14:11;;;;;;;5.67;2.50;;;;;;;20.84;78.65;98726.00;5115269;28;20255;-88
2023/05/29 05:16:38;;;;;;;5.27;2.77;;;;;;;20.93;77.76;98711.75;5105541;28;20287;-88
2023/05/29 05:19:06;;;;;;;4.53;2.30;;;;;;;21.00;77.51;98722.59;5094891;28;20220;-87
2023/05/29 05:21:33;;;;;;;4.37;2.60;;;;;;;21.00;77.17;98720.78;5101167;28;20180;-89
2023/05/29 05:24:00;;;;;;;5.67;2.57;;;;;;;21.03;76.50;98716.97;5108589;28;20267;-88
2023/05/29 05:26:27;;;;;;;6.67;2.70;;;;;;;21.03;76.45;98723.16;5110369;28;20188;-89
2023/05/29 05:28:54;;;;;;;6.63;2.73;;;;;;;21.04;76.69;98718.66;5097005;28;20275;-88
2023/05/29 05:31:21;;;;;;;5.00;2.93;;;;;;;21.10;76.70;98718.03;5096801;28;20180;-88
2023/05/29 05:33:47;;;;;;;8.90;2.37;;;;;;;21.17;76.79;98725.25;5102091;28;20188;-88
2023/05/29 05:36:14;;;;;;;10.57;3.10;;;;;;;21.20;75.86;98716.94;5110517;28;20191;-89
2023/05/29 05:38:40;;;;;;;5.20;2.53;;;;;;;21.27;76.58;98726.00;5107840;28;20271;-88
2023/05/29 05:41:07;;;;;;;5.73;3.30;;;;;;;21.33;76.12;98722.69;5100498;28;20199;-88
2023/05/29 05:43:34;;;;;;;4.70;2.83;;;;;;;21.39;76.48;98723.88;5096583;28;20183;-88
2023/05/29 05:46:01;;;;;;;5.97;2.90;;;;;;;21.53;76.25;98717.97;5094076;28;20646;-89
2023/05/29 05:48:28;;;;;;;4.47;2.80;;;;;;;21.63;75.34;98713.34;5097737;28;20267;-89
2023/05/29 05:50:54;;;;;;;7.27;3.07;;;;;;;21.70;74.44;98716.19;5098101;28;20182;-89
2023/05/29 05:53:21;;;;;;;5.87;3.00;;;;;;;21.76;74.26;98721.72;5093487;28;20187;-88
2023/05/29 05:55:48;;;;;;;5.83;2.90;;;;;;;21.81;73.67;98729.25;5094310;28;20663;-89
2023/05/29 05:58:15;;;;;;;5.43;2.63;;;;;;;21.84;74.26;98731.59;5109592;28;20233;-89
2023/05/29 06:00:42;;;;;;;5.10;2.60;;;;;;;21.88;74.28;98727.66;5114583;28;20179;-89
2023/05/29 06:03:09;;;;;;;5.93;3.20;;;;;;;21.78;74.27;98727.72;5114201;28;20167;-88
2023/05/29 06:05:36;;;;;;;7.97;3.10;;;;;;;21.80;74.07;98728.41;5112294;28;20180;-89
2023/05/29 06:08:05;;;;;;;5.07;2.63;;;;;;;21.80;74.60;98731.06;5113399;28;20172;-89
2023/05/29 06:10:31;;;;;;;8.60;2.93;;;;;;;21.85;75.01;98738.63;5093690;28;20173;-89
2023/05/29 06:12:58;;;;;;;5.93;3.03;;;;;;;21.89;74.13;98735.47;5106115;28;20535;-89
2023/05/29 06:15:25;;;;;;;6.17;3.50;;;;;;;21.84;73.52;98728.94;5093060;28;20176;-90
2023/05/29 06:17:52;;;;;;;4.80;2.83;;;;;;;21.94;73.97;98730.50;5094111;28;20255;-89
2023/05/29 06:20:19;;;;;;;6.63;3.50;;;;;;;22.08;74.11;98737.06;5103574;27;20179;-88
2023/05/29 06:22:50;;;;;;;6.20;3.37;;;;;;;22.12;72.52;98735.72;5112972;28;20198;-89
2023/05/29 06:25:20;;;;;;;6.20;2.83;;;;;;;22.13;72.51;98740.06;5113656;28;20224;-89
2023/05/29 06:27:47;;;;;;;5.63;3.00;;;;;;;22.16;72.97;98736.22;5112905;28;20262;-90
2023/05/29 06:30:15;;;;;;;6.23;3.07;;;;;;;22.21;72.96;98739.25;5113998;28;20172;-89
2023/05/29 06:32:42;;;;;;;5.17;2.83;;;;;;;22.22;71.75;98736.41;5113535;28;20187;-88
2023/05/29 06:35:08;;;;;;;6.03;3.23;;;;;;;22.24;72.59;98739.75;5112750;28;20644;-89
2023/05/29 06:37:35;;;;;;;4.97;2.87;;;;;;;22.40;73.00;98739.78;5106272;28;20570;-89
2023/05/29 06:40:02;;;;;;;6.33;2.93;;;;;;;22.39;71.93;98735.44;5093599;28;20172;-89
2023/05/29 06:42:29;;;;;;;8.57;2.90;;;;;;;22.40;73.01;98745.13;5092895;28;20540;-89
2023/05/29 06:44:56;;;;;;;6.13;3.10;;;;;;;22.31;71.14;98739.94;5092978;28;20259;-90
2023/05/29 06:47:22;;;;;;;4.57;2.63;;;;;;;22.34;71.84;98743.13;5092213;28;20179;-89
2023/05/29 06:49:49;;;;;;;6.10;3.23;;;;;;;22.43;72.02;98746.66;5108485;28;20176;-89
2023/05/29 06:52:15;;;;;;;7.77;3.33;;;;;;;22.36;71.55;98735.75;5094100;28;20219;-89
2023/05/29 06:54:42;;;;;;;6.23;2.90;;;;;;;22.33;71.97;98737.91;5092160;28;20168;-89
2023/05/29 06:57:09;;;;;;;6.30;2.77;;;;;;;22.40;71.38;98738.97;5098368;28;20200;-89
2023/05/29 06:59:36;;;;;;;4.90;3.23;;;;;;;22.51;70.58;98735.97;5109706;28;20214;-89
2023/05/29 07:02:02;;;;;;;5.93;2.90;;;;;;;22.59;71.08;98739.47;5113689;28;20168;-90
2023/05/29 07:04:29;;;;;;;6.07;2.50;;;;;;;22.49;71.52;98738.78;5113674;28;20176;-88
2023/05/29 07:06:55;;;;;;;10.27;2.77;;;;;;;22.66;70.48;98736.16;5113428;28;20164;-90
2023/05/29 07:09:22;;;;;;;8.33;2.77;;;;;;;22.73;69.85;98737.16;5112605;28;20531;-89
2023/05/29 07:11:47;;;;;;;3.73;2.30;;;;;;;22.71;69.71;98736.50;5112369;28;20537;-89
2023/05/29 07:14:14;;;;;;;4.70;2.43;;;;;;;22.85;69.79;98735.84;5113295;28;20175;-88
2023/05/29 07:16:39;;;;;;;8.23;3.20;;;;;;;22.99;70.05;98727.97;5113745;28;20202;-89
2023/05/29 07:19:06;;;;;;;4.73;2.43;;;;;;;23.06;69.74;98734.31;5112275;28;20175;-88
2023/05/29 07:21:33;;;;;;;4.50;2.13;;;;;;;22.95;66.88;98732.00;5112327;28;20179;-89
2023/05/29 07:23:59;;;;;;;5.27;2.53;;;;;;;22.97;67.84;98729.16;5112587;28;20549;-91
2023/05/29 07:26:40;;;;;;;5.17;2.80;;;;;;;22.91;65.58;98729.81;5115484;28;20220;-89
2023/05/29 07:29:06;;;;;;;4.63;2.60;;;;;;;22.87;65.93;98723.97;5115936;28;20209;-89
2023/05/29 07:31:33;;;;;;;5.57;2.97;;;;;;;22.97;66.53;98731.81;5117077;28;20262;-90
2023/05/29 07:33:59;;;;;;;5.07;2.83;;;;;;;22.90;64.57;98725.47;5116810;28;20222;-89
2023/05/29 07:36:51;;;;;;;5.53;2.57;;;;;;;22.85;64.08;98735.84;5117890;28;20223;-89
2023/05/29 07:39:18;;;;;;;4.40;2.13;;;;;;;22.89;64.71;98742.50;5113853;27;20220;-89
2023/05/29 07:41:45;;;;;;;5.37;2.53;;;;;;;23.10;65.86;98737.47;5096462;28;20267;-89
2023/05/29 07:44:10;;;;;;;3.23;1.90;;;;;;;23.29;66.44;98734.44;5096311;28;20202;-89
2023/05/29 07:46:36;;;;;;;5.20;2.33;;;;;;;23.43;65.58;98732.91;5096427;28;20647;-89
2023/05/29 07:49:02;;;;;;;5.87;2.47;;;;;;;23.32;65.37;98739.47;5098389;28;20597;-90
2023/05/29 07:51:29;;;;;;;11.83;2.10;;;;;;;23.40;64.27;98744.78;5116258;28;20203;-89
2023/05/29 07:53:56;;;;;;;3.13;1.90;;;;;;;23.55;64.80;98740.44;5116731;28;20284;-90
2023/05/29 07:56:30;;;;;;;4.60;2.10;;;;;;;23.58;64.57;98742.78;5116939;28;20198;-91
2023/05/29 07:58:59;;;;;;;4.60;2.03;;;;;;;23.39;61.67;98737.81;5103647;28;20175;-90
2023/05/29 08:01:26;;;;;;;4.47;2.30;;;;;;;23.52;62.21;98742.59;5096185;28;20208;-89
2023/05/29 08:03:52;;;;;;;6.10;2.10;;;;;;;23.60;64.20;98737.22;5096168;28;20168;-89
2023/05/29 08:06:19;;;;;;;8.93;2.30;;;;;;;23.67;62.81;98738.19;5103336;28;20171;-90
2023/05/29 08:08:46;;;;;;;7.07;2.70;;;;;;;23.71;63.29;98739.53;5115605;28;20260;-89
2023/05/29 08:11:11;;;;;;;4.10;1.87;;;;;;;23.92;64.54;98738.94;5096379;28;20691;-90
2023/05/29 08:13:38;;;;;;;5.43;2.30;;;;;;;24.12;62.90;98737.53;5094784;28;20276;-89
2023/05/29 08:16:06;;;;;;;6.20;2.57;;;;;;;24.20;61.50;98730.28;5099455;28;20195;-89
2023/05/29 08:18:35;;;;;;;6.90;3.00;;;;;;;24.16;61.21;98733.50;5107431;28;20245;-89
2023/05/29 08:21:00;;;;;;;4.40;2.43;;;;;;;24.12;61.32;98734.84;5105078;28;20179;-91
2023/05/29 08:23:27;;;;;;;4.67;2.37;;;;;;;24.13;61.05;98733.84;5115051;28;20171;-90
2023/05/29 08:25:53;;;;;;;4.53;2.37;;;;;;;24.13;62.15;98731.19;5116205;28;20255;-90
2023/05/29 08:28:21;;;;;;;4.27;2.10;;;;;;;24.18;63.23;98723.44;5099951;28;20212;-90
2023/05/29 08:30:50;;;;;;;6.93;2.40;;;;;;;24.05;61.88;98723.16;5097744;28;20256;-91
2023/05/29 08:33:17;;;;;;;6.20;2.27;;;;;;;23.98;61.39;98728.34;5102670;28;20267;-90
2023/05/29 08:35:44;;;;;;;4.43;2.37;;;;;;;24.16;62.75;98725.47;5098624;28;20195;-90
2023/05/29 08:38:10;;;;;;;5.57;2.63;;;;;;;24.11;62.04;98714.47;5113922;28;20179;-89
2023/05/29 08:40:43;;;;;;;5.80;2.47;;;;;;;23.98;61.22;98719.50;5096773;28;20172;-91
2023/05/29 08:44:12;;;;;;;;;;;;;;;;;;;;;
2023/05/29 08:47:16;;;;;;;;;;;;;;;;;;;;;
2023/05/29 08:49:56;;;;;;;4.57;2.60;;;;;;;23.87;62.82;98712.72;5033370;28;20193;-93
2023/05/29 08:52:30;;;;;;;4.70;2.00;;;;;;;23.98;62.43;98704.25;5014953;28;20293;-91
2023/05/29 08:54:57;;;;;;;7.33;2.67;;;;;;;24.17;61.40;98700.34;5031694;28;20183;-89
2023/05/29 08:57:43;;;;;;;7.23;2.43;;;;;;;24.12;61.90;98702.72;5077639;28;20216;-90
2023/05/29 09:00:22;;;;;;;5.67;2.70;;;;;;;24.02;61.70;98694.88;5092946;28;20168;-90
2023/05/29 09:02:59;;;;;;;5.30;2.27;;;;;;;24.08;61.53;98696.03;5093877;28;20278;-89
2023/05/29 09:05:39;;;;;;;6.93;2.63;;;;;;;24.22;62.82;98687.25;5108308;28;20275;-93
2023/05/29 09:12:16;;;;;;;4.27;2.27;;;;;;;24.54;61.49;98689.69;5108268;28;20202;-93
2023/05/29 09:28:30;;;;;;;;;;;;;;;;;;;;;
2023/05/29 09:31:45;;;;;;;7.20;3.13;;;;;;;25.73;57.55;98669.06;5072865;28;20672;-93
2023/05/29 09:35:08;;;;;;;;;;;;;;;;;;;;;
2023/05/29 09:41:54;;;;;;;5.93;2.60;;;;;;;26.39;56.86;98661.75;4950039;28;20279;-91
2023/05/29 10:01:26;;;;;;;3.03;1.60;;;;;;;26.60;53.67;98659.03;4880332;29;20327;-92
2023/05/29 10:11:33;;;;;;;3.95;1.92;;;;;;;26.87;49.33;98643.97;4867843;29;20276;-91
2023/05/29 10:28:59;;;;;;;4.37;2.17;;;;;;;26.53;50.74;98656.28;4884396;29;20241;-92
2023/05/29 11:12:25;;;;;;;;;;;;;;;;;;;;;
2023/05/29 11:15:17;;;;;;;5.63;2.23;;;;;;;22.61;65.35;98707.25;4826498;29;20189;-90
2023/05/29 13:08:34;;;;;;;;;;;;;;;;;;;;;
2023/05/29 13:11:03;;;;;;;5.83;2.90;;;;;;;23.42;73.07;98675.09;5029935;28;20202;-90
2023/05/29 13:13:40;;;;;;;6.90;2.73;;;;;;;23.61;74.15;98678.19;5034955;28;20159;-90
2023/05/29 13:16:10;;;;;;;9.23;3.07;;;;;;;23.61;74.82;98677.38;5017378;28;20270;-90
2023/05/29 13:18:38;;;;;;;7.27;2.90;;;;;;;23.72;74.47;98682.31;5034636;28;20182;-88
2023/05/29 13:21:03;;;;;;;5.07;2.63;;;;;;;23.85;74.81;98674.56;5017175;28;20175;-88
2023/05/29 13:23:29;;;;;;;5.83;2.73;;;;;;;23.96;73.81;98678.66;5016917;28;20312;-89
2023/05/29 13:25:54;;;;;;;4.97;2.50;;;;;;;23.98;73.01;98677.50;5034477;28;20189;-88
2023/05/29 13:28:21;;;;;;;5.40;2.30;;;;;;;23.97;71.95;98680.34;5027055;28;20324;-88
2023/05/29 13:30:49;;;;;;;8.80;2.93;;;;;;;24.24;72.72;98677.22;5032515;28;20178;-88
2023/05/29 13:33:16;;;;;;;5.53;2.90;;;;;;;24.25;71.56;98668.97;5014124;28;20326;-88
2023/05/29 13:35:42;;;;;;;5.40;2.60;;;;;;;24.37;70.45;98669.41;5014149;28;20217;-88
2023/05/29 13:38:09;;;;;;;5.23;2.73;;;;;;;24.57;70.72;98659.88;5013870;28;20187;-88
2023/05/29 13:40:35;;;;;;;5.63;2.53;;;;;;;24.76;69.66;98659.38;5003014;28;20287;-89
2023/05/29 13:43:02;;;;;;;4.10;2.40;;;;;;;24.89;68.89;98656.94;5016369;28;20359;-87
2023/05/29 13:45:32;;;;;;;4.47;2.47;;;;;;;25.04;67.57;98657.78;5017266;28;20626;-89
2023/05/29 13:48:15;;;;;;;;;;;;;;;;;;;;;
2023/05/29 13:50:54;;;;;;;9.70;3.20;;;;;;;25.24;68.57;98647.31;5023391;28;20190;-90
2023/05/29 13:53:44;;;;;;;6.23;2.63;;;;;;;25.35;68.43;98648.69;5004709;28;20533;-89
2023/05/29 13:56:27;;;;;;;;;;;;;;;;;;;;;
2023/05/29 14:02:44;;;;;;;6.50;3.40;;;;;;;25.56;66.60;98651.47;4988292;28;20199;-89
2023/05/29 14:05:53;;;;;;;;;;;;;;;;;;;;;
2023/05/29 14:09:02;;;;;;;;;;;;;;;;;;;;;
2023/05/29 14:11:38;;;;;;;4.97;2.67;;;;;;;26.06;59.72;98646.09;5017485;28;20195;-88
2023/05/29 14:14:16;;;;;;;5.13;2.80;;;;;;;26.02;60.71;98639.41;5021713;28;20272;-89
2023/05/29 14:16:55;;;;;;;;;;;;;;;;;;;;;
2023/05/29 14:19:40;;;;;;;8.20;2.67;;;;;;;26.02;59.99;98652.84;5019875;28;20183;-88
2023/05/29 14:22:06;;;;;;;6.00;2.83;;;;;;;26.00;61.27;98648.69;5008948;28;20642;-89
2023/05/29 14:24:32;;;;;;;7.47;3.20;;;;;;;25.99;63.24;98655.09;5004367;28;20183;-89
2023/05/29 14:27:45;;;;;;;12.53;3.07;;;;;;;26.06;61.99;98651.47;5000329;28;20614;-88
2023/05/29 14:30:32;;;;;;;6.60;3.00;;;;;;;26.02;61.83;98644.78;5005828;28;20558;-89
2023/05/29 14:34:06;;;;;;;;;;;;;;;;;;;;;
2023/05/29 14:37:19;;;;;;;6.70;3.10;;;;;;;25.85;64.28;98640.69;5029273;28;20216;-87
2023/05/29 14:40:48;;;;;;;7.17;3.43;;;;;;;25.87;63.54;98646.69;5014893;28;20225;-88
2023/05/29 14:44:13;;;;;;;;;;;;;;;;;;;;;
2023/05/29 14:47:12;;;;;;;6.20;2.87;;;;;;;25.79;62.61;98640.59;5032416;28;20201;-89
2023/05/29 14:50:42;;;;;;;7.70;3.00;;;;;;;25.72;61.62;98648.59;5031926;28;20261;-89
2023/05/29 15:01:10;;;;;;;3.63;1.90;;;;;;;25.77;60.94;98661.44;4941272;28;20192;-88
2023/05/29 15:04:16;;;;;;;7.73;2.60;;;;;;;25.79;58.60;98656.72;5012742;28;20179;-88
2023/05/29 15:21:42;;;;;;;5.40;2.90;;;;;;;25.94;61.03;98647.59;4992429;28;20211;-88
2023/05/29 15:25:11;;;;;;;;;;;;;;;;;;;;;
2023/05/29 15:32:30;;;;;;;;;;;;;;;;;;;;;
2023/05/29 15:42:16;;;;;;;5.97;3.00;;;;;;;25.55;63.13;98663.25;4972329;28;20202;-88
2023/05/29 15:45:24;;;;;;;5.53;2.73;;;;;;;25.43;62.61;98659.34;4971960;28;20235;-88
2023/05/29 15:55:21;;;;;;;6.63;3.10;;;;;;;25.34;64.37;98655.09;4996302;28;20183;-88
2023/05/29 16:12:27;;;;;;;;;;;;;;;;;;;;;
2023/05/29 16:15:51;;;;;;;6.07;3.30;;;;;;;25.07;65.29;98658.41;4968199;28;20196;-89
2023/05/29 16:21:57;;;;;;;8.17;3.30;;;;;;;24.94;66.55;98653.69;4975428;28;20188;-88
2023/05/29 16:25:21;;;;;;;4.80;2.53;;;;;;;24.87;66.46;98652.72;4976484;28;20183;-88
2023/05/29 16:38:07;;;;;;;3.77;2.20;;;;;;;24.59;65.89;98665.03;4974377;28;20220;-88
2023/05/29 16:44:31;;;;;;;4.83;2.77;;;;;;;24.61;66.29;98658.47;4973270;28;20188;-89
2023/05/29 16:47:35;;;;;;;3.63;1.90;;;;;;;24.53;67.31;98666.56;4975801;28;20274;-89
